createdAt,value
2018-09-05T00:00:35.663Z,25.70
2018-09-05T00:01:35.668Z,25.64
2018-09-05T00:02:35.658Z,25.66
2018-09-05T00:03:35.630Z,25.74
2018-09-05T00:04:35.619Z,25.63
2018-09-05T00:05:35.620Z,25.62
2018-09-05T00:06:35.610Z,25.62
2018-09-05T00:07:35.591Z,25.63
2018-09-05T00:08:35.583Z,25.62
2018-09-05T00:09:35.566Z,25.64
2018-09-05T00:10:35.551Z,25.66
2018-09-05T00:11:35.561Z,25.67
2018-09-05T00:12:35.531Z,25.69
2018-09-05T00:13:35.516Z,25.64
2018-09-05T00:14:35.507Z,25.62
2018-09-05T00:15:35.495Z,25.62
2018-09-05T00:16:35.495Z,25.63
2018-09-05T00:17:35.474Z,25.64
2018-09-05T00:18:35.460Z,25.60
2018-09-05T00:19:35.447Z,25.67
2018-09-05T00:20:35.438Z,25.60
2018-09-05T00:21:35.436Z,25.66
2018-09-05T00:22:35.420Z,25.63
2018-09-05T00:23:35.412Z,25.64
2018-09-05T00:24:35.391Z,25.64
2018-09-05T00:25:35.397Z,25.57
2018-09-05T00:26:35.379Z,25.63
2018-09-05T00:27:35.358Z,25.62
2018-09-05T00:28:35.345Z,25.67
2018-09-05T00:29:35.340Z,25.56
2018-09-05T00:30:35.321Z,25.66
2018-09-05T00:31:35.320Z,25.66
2018-09-05T00:32:35.335Z,25.62
2018-09-05T00:33:35.287Z,25.62
2018-09-05T00:34:35.278Z,25.67
2018-09-05T00:35:35.271Z,25.67
2018-09-05T00:36:35.265Z,25.64
2018-09-05T00:37:35.241Z,25.60
2018-09-05T00:38:35.247Z,25.67
2018-09-05T00:39:35.219Z,25.63
2018-09-05T00:40:35.208Z,25.64
2018-09-05T00:41:35.225Z,25.60
2018-09-05T00:42:35.184Z,25.69
2018-09-05T00:43:35.187Z,25.62
2018-09-05T00:44:35.162Z,25.64
2018-09-05T00:45:35.150Z,25.63
2018-09-05T00:46:35.139Z,25.62
2018-09-05T00:47:35.144Z,25.62
2018-09-05T00:48:35.139Z,25.64
2018-09-05T00:49:35.118Z,25.60
2018-09-05T00:50:35.092Z,25.63
2018-09-05T00:51:35.081Z,25.63
2018-09-05T00:52:35.083Z,25.57
2018-09-05T00:53:35.060Z,25.63
2018-09-05T00:54:35.052Z,25.69
2018-09-05T00:55:35.050Z,25.56
2018-09-05T00:56:35.024Z,25.59
2018-09-05T00:57:35.024Z,25.63
2018-09-05T00:58:35.002Z,25.62
2018-09-05T00:59:34.992Z,25.64
2018-09-05T01:00:34.985Z,25.62
2018-09-05T01:01:34.987Z,25.60
2018-09-05T01:02:34.970Z,25.62
2018-09-05T01:03:34.945Z,25.64
2018-09-05T01:04:34.934Z,25.56
2018-09-05T01:05:34.923Z,25.60
2018-09-05T01:06:34.919Z,25.64
2018-09-05T01:07:34.925Z,25.63
2018-09-05T01:08:34.892Z,25.64
2018-09-05T01:09:34.876Z,25.66
2018-09-05T01:10:34.865Z,25.62
2018-09-05T01:11:34.872Z,25.63
2018-09-05T01:12:34.867Z,25.64
2018-09-05T01:13:34.830Z,25.62
2018-09-05T01:14:34.820Z,25.59
2018-09-05T01:15:34.809Z,25.62
2018-09-05T01:16:34.796Z,25.63
2018-09-05T01:17:34.796Z,25.57
2018-09-05T01:18:34.785Z,25.64
2018-09-05T01:19:34.763Z,25.67
2018-09-05T01:20:34.750Z,25.56
2018-09-05T01:21:34.743Z,25.60
2018-09-05T01:22:34.743Z,25.64
2018-09-05T01:23:34.723Z,25.59
2018-09-05T01:24:34.730Z,25.64
2018-09-05T01:25:34.697Z,25.59
2018-09-05T01:26:34.683Z,25.62
2018-09-05T01:27:34.684Z,25.59
2018-09-05T01:28:34.664Z,25.52
2018-09-05T01:29:34.649Z,25.62
2018-09-05T01:30:34.644Z,25.54
2018-09-05T01:31:34.628Z,25.63
2018-09-05T01:32:34.625Z,25.59
2018-09-05T01:33:34.605Z,25.64
2018-09-05T01:34:34.618Z,25.62
2018-09-05T01:35:34.581Z,25.62
2018-09-05T01:36:34.579Z,25.66
2018-09-05T01:37:34.578Z,25.59
2018-09-05T01:38:34.546Z,25.56
2018-09-05T01:39:34.538Z,25.62
2018-09-05T01:40:34.525Z,25.63
2018-09-05T01:41:34.512Z,25.64
2018-09-05T01:42:34.509Z,25.63
2018-09-05T01:43:34.494Z,25.60
2018-09-05T01:44:34.479Z,25.56
2018-09-05T01:45:34.469Z,25.60
2018-09-05T01:46:34.454Z,25.52
2018-09-05T01:47:34.472Z,25.54
2018-09-05T01:48:34.431Z,25.62
2018-09-05T01:49:34.464Z,25.57
2018-09-05T01:50:34.414Z,25.51
2018-09-05T01:51:34.404Z,25.52
2018-09-05T01:52:34.400Z,25.57
2018-09-05T01:53:34.375Z,25.51
2018-09-05T01:54:34.364Z,25.54
2018-09-05T01:55:34.359Z,25.57
2018-09-05T01:56:34.342Z,25.60
2018-09-05T01:57:34.361Z,25.57
2018-09-05T01:58:34.319Z,25.56
2018-09-05T01:59:34.306Z,25.60
2018-09-05T02:00:34.296Z,25.54
2018-09-05T02:01:34.296Z,25.51
2018-09-05T02:02:34.286Z,25.54
2018-09-05T02:03:34.261Z,25.57
2018-09-05T02:04:34.254Z,25.52
2018-09-05T02:05:34.241Z,25.51
2018-09-05T02:06:34.230Z,25.57
2018-09-05T02:07:34.239Z,25.51
2018-09-05T02:08:34.309Z,25.51
2018-09-05T02:09:34.194Z,25.54
2018-09-05T02:10:34.202Z,25.57
2018-09-05T02:11:34.170Z,25.59
2018-09-05T02:12:34.162Z,25.51
2018-09-05T02:13:34.162Z,25.51
2018-09-05T02:14:34.138Z,25.59
2018-09-05T02:15:34.126Z,25.56
2018-09-05T02:16:34.112Z,25.54
2018-09-05T02:17:34.102Z,25.54
2018-09-05T02:18:34.101Z,25.56
2018-09-05T02:19:34.090Z,25.52
2018-09-05T02:20:34.101Z,25.54
2018-09-05T02:21:34.059Z,25.54
2018-09-05T02:22:34.045Z,25.54
2018-09-05T02:23:34.048Z,25.54
2018-09-05T02:24:34.023Z,25.52
2018-09-05T02:25:34.012Z,25.52
2018-09-05T02:26:34.003Z,25.57
2018-09-05T02:27:33.990Z,25.59
2018-09-05T02:28:33.997Z,25.48
2018-09-05T02:29:33.968Z,25.54
2018-09-05T02:30:33.953Z,25.44
2018-09-05T02:31:33.943Z,25.52
2018-09-05T02:32:33.937Z,25.52
2018-09-05T02:33:33.954Z,25.52
2018-09-05T02:34:33.908Z,25.52
2018-09-05T02:35:33.896Z,25.54
2018-09-05T02:36:33.887Z,25.59
2018-09-05T02:37:33.874Z,25.51
2018-09-05T02:38:33.882Z,25.49
2018-09-05T02:39:33.851Z,25.52
2018-09-05T02:40:33.939Z,25.48
2018-09-05T02:41:33.831Z,25.56
2018-09-05T02:42:33.819Z,25.52
2018-09-05T02:43:33.842Z,25.51
2018-09-05T02:44:33.805Z,25.45
2018-09-05T02:45:33.786Z,25.48
2018-09-05T02:46:33.774Z,25.52
2018-09-05T02:47:33.764Z,25.52
2018-09-05T02:48:33.762Z,25.56
2018-09-05T02:49:33.739Z,25.48
2018-09-05T02:50:33.735Z,25.49
2018-09-05T02:51:33.721Z,25.51
2018-09-05T02:52:33.707Z,25.52
2018-09-05T02:53:33.709Z,25.52
2018-09-05T02:54:33.684Z,25.42
2018-09-05T02:55:33.674Z,25.48
2018-09-05T02:56:33.680Z,25.51
2018-09-05T02:57:33.649Z,25.39
2018-09-05T02:58:33.694Z,25.42
2018-09-05T02:59:33.630Z,25.49
2018-09-05T03:00:33.620Z,25.52
2018-09-05T03:01:33.605Z,25.44
2018-09-05T03:02:33.597Z,25.49
2018-09-05T03:03:33.598Z,25.49
2018-09-05T03:04:33.580Z,25.56
2018-09-05T03:05:33.561Z,25.41
2018-09-05T03:06:33.551Z,25.49
2018-09-05T03:07:33.548Z,25.56
2018-09-05T03:08:33.538Z,25.42
2018-09-05T03:09:33.515Z,25.52
2018-09-05T03:10:33.501Z,25.54
2018-09-05T03:11:33.491Z,25.54
2018-09-05T03:12:33.489Z,25.56
2018-09-05T03:13:33.482Z,25.47
2018-09-05T03:14:33.458Z,25.44
2018-09-05T03:15:33.444Z,25.54
2018-09-05T03:16:33.436Z,25.49
2018-09-05T03:17:33.425Z,25.48
2018-09-05T03:18:33.430Z,25.44
2018-09-05T03:19:33.418Z,25.56
2018-09-05T03:20:33.388Z,25.47
2018-09-05T03:21:33.379Z,25.52
2018-09-05T03:22:33.366Z,25.54
2018-09-05T03:23:33.417Z,25.47
2018-09-05T03:24:33.349Z,25.52
2018-09-05T03:25:33.332Z,25.52
2018-09-05T03:26:33.321Z,25.45
2018-09-05T03:27:33.309Z,25.51
2018-09-05T03:28:33.307Z,25.42
2018-09-05T03:29:33.287Z,25.49
2018-09-05T03:30:33.284Z,25.52
2018-09-05T03:31:33.268Z,25.39
2018-09-05T03:32:33.458Z,25.52
2018-09-05T03:33:33.259Z,25.39
2018-09-05T03:34:33.230Z,25.54
2018-09-05T03:35:33.218Z,25.47
2018-09-05T03:36:33.220Z,25.38
2018-09-05T03:37:33.197Z,25.54
2018-09-05T03:38:33.195Z,25.51
2018-09-05T03:39:33.172Z,25.47
2018-09-05T03:40:33.163Z,25.52
2018-09-05T03:41:33.159Z,25.42
2018-09-05T03:42:33.157Z,25.42
2018-09-05T03:43:33.169Z,25.48
2018-09-05T03:44:33.116Z,25.49
2018-09-05T03:45:33.105Z,25.51
2018-09-05T03:46:33.096Z,25.44
2018-09-05T03:47:33.082Z,25.45
2018-09-05T03:48:33.071Z,25.48
2018-09-05T03:49:33.089Z,25.48
2018-09-05T03:50:33.053Z,25.39
2018-09-05T03:51:33.035Z,25.41
2018-09-05T03:52:33.028Z,25.42
2018-09-05T03:53:33.019Z,25.39
2018-09-05T03:54:33.011Z,25.44
2018-09-05T03:55:33.005Z,25.48
2018-09-05T03:56:32.978Z,25.45
2018-09-05T03:57:32.968Z,25.44
2018-09-05T03:58:32.958Z,25.41
2018-09-05T03:59:32.956Z,25.51
2018-09-05T04:00:32.934Z,25.38
2018-09-05T04:01:32.927Z,25.41
2018-09-05T04:02:32.911Z,25.37
2018-09-05T04:03:32.902Z,25.48
2018-09-05T04:04:32.899Z,25.47
2018-09-05T04:05:32.878Z,25.39
2018-09-05T04:06:32.864Z,25.39
2018-09-05T04:07:32.863Z,25.33
2018-09-05T04:08:32.842Z,25.37
2018-09-05T04:09:32.844Z,25.42
2018-09-05T04:10:32.820Z,25.38
2018-09-05T04:11:33.009Z,25.38
2018-09-05T04:12:32.795Z,25.42
2018-09-05T04:13:32.783Z,25.39
2018-09-05T04:14:32.788Z,25.37
2018-09-05T04:15:32.762Z,25.49
2018-09-05T04:16:32.752Z,25.34
2018-09-05T04:17:32.742Z,25.39
2018-09-05T04:18:32.750Z,25.38
2018-09-05T04:19:32.729Z,25.42
2018-09-05T04:20:32.708Z,25.34
2018-09-05T04:21:32.695Z,25.37
2018-09-05T04:22:32.682Z,25.33
2018-09-05T04:23:32.707Z,25.45
2018-09-05T04:24:32.677Z,25.38
2018-09-05T04:25:32.649Z,25.44
2018-09-05T04:26:32.662Z,25.37
2018-09-05T04:27:32.645Z,25.47
2018-09-05T04:28:32.618Z,25.38
2018-09-05T04:29:32.721Z,25.42
2018-09-05T04:30:32.596Z,25.37
2018-09-05T04:31:32.607Z,25.34
2018-09-05T04:32:32.569Z,25.41
2018-09-05T04:33:32.557Z,25.33
2018-09-05T04:34:32.556Z,25.44
2018-09-05T04:35:32.540Z,25.42
2018-09-05T04:36:32.528Z,25.39
2018-09-05T04:37:32.512Z,25.39
2018-09-05T04:38:32.501Z,25.38
2018-09-05T04:39:32.497Z,25.41
2018-09-05T04:40:32.500Z,25.39
2018-09-05T04:41:32.487Z,25.41
2018-09-05T04:42:32.460Z,25.41
2018-09-05T04:43:32.470Z,25.34
2018-09-05T04:44:32.445Z,25.32
2018-09-05T04:45:32.420Z,25.29
2018-09-05T04:46:32.413Z,25.37
2018-09-05T04:47:32.399Z,25.30
2018-09-05T04:48:32.418Z,25.38
2018-09-05T04:49:32.385Z,25.38
2018-09-05T04:50:32.364Z,25.39
2018-09-05T04:51:32.354Z,25.29
2018-09-05T04:52:32.416Z,25.38
2018-09-05T04:53:32.331Z,25.27
2018-09-05T04:54:32.339Z,25.22
2018-09-05T04:55:32.937Z,25.29
2018-09-05T04:56:32.296Z,25.26
2018-09-05T04:57:32.283Z,25.29
2018-09-05T04:58:32.316Z,25.30
2018-09-05T04:59:32.263Z,25.24
2018-09-05T05:00:32.260Z,25.26
2018-09-05T05:01:32.254Z,25.26
2018-09-05T05:02:32.228Z,25.27
2018-09-05T05:03:32.218Z,25.27
2018-09-05T05:04:32.284Z,25.24
2018-09-05T05:05:32.272Z,25.30
2018-09-05T05:06:32.182Z,25.29
2018-09-05T05:07:32.206Z,25.24
2018-09-05T05:08:32.159Z,25.30
2018-09-05T05:09:32.150Z,25.27
2018-09-05T05:10:32.148Z,25.24
2018-09-05T05:11:32.124Z,25.22
2018-09-05T05:12:32.171Z,25.23
2018-09-05T05:13:32.120Z,25.26
2018-09-05T05:14:32.090Z,25.23
2018-09-05T05:15:32.094Z,25.27
2018-09-05T05:16:32.076Z,25.23
2018-09-05T05:17:32.076Z,25.24
2018-09-05T05:18:32.044Z,25.24
2018-09-05T05:19:32.034Z,25.26
2018-09-05T05:20:32.046Z,25.22
2018-09-05T05:21:32.010Z,25.24
2018-09-05T05:22:32.004Z,25.26
2018-09-05T05:23:32.031Z,25.22
2018-09-05T05:24:31.975Z,25.27
2018-09-05T05:25:31.975Z,25.30
2018-09-05T05:26:31.955Z,25.24
2018-09-05T05:27:31.962Z,25.24
2018-09-05T05:28:31.943Z,25.27
2018-09-05T05:29:31.919Z,25.22
2018-09-05T05:30:31.918Z,25.24
2018-09-05T05:31:31.896Z,25.27
2018-09-05T05:32:31.976Z,25.26
2018-09-05T05:33:31.873Z,25.24
2018-09-05T05:34:31.864Z,25.26
2018-09-05T05:35:31.864Z,25.29
2018-09-05T05:36:31.841Z,25.26
2018-09-05T05:37:31.884Z,25.26
2018-09-05T05:38:31.820Z,25.24
2018-09-05T05:39:31.807Z,25.30
2018-09-05T05:40:31.826Z,25.26
2018-09-05T05:41:31.785Z,25.23
2018-09-05T05:42:31.774Z,25.27
2018-09-05T05:43:31.788Z,25.26
2018-09-05T05:44:31.751Z,25.26
2018-09-05T05:45:31.749Z,25.20
2018-09-05T05:46:31.732Z,25.26
2018-09-05T05:47:31.719Z,25.27
2018-09-05T05:48:31.704Z,25.24
2018-09-05T05:49:31.692Z,25.26
2018-09-05T05:50:31.708Z,25.23
2018-09-05T05:51:31.669Z,25.23
2018-09-05T05:52:31.662Z,25.26
2018-09-05T05:53:31.649Z,25.27
2018-09-05T05:54:31.636Z,25.27
2018-09-05T05:55:31.634Z,25.22
2018-09-05T05:56:31.616Z,25.26
2018-09-05T05:57:31.609Z,25.23
2018-09-05T05:58:31.590Z,25.24
2018-09-05T05:59:31.577Z,25.26
2018-09-05T06:00:31.581Z,25.26
2018-09-05T06:01:31.626Z,25.34
2018-09-05T06:02:31.637Z,25.39
2018-09-05T06:03:31.598Z,25.34
2018-09-05T06:04:31.642Z,25.39
2018-09-05T06:05:31.969Z,25.26
2018-09-05T06:06:31.706Z,25.33
2018-09-05T06:07:31.505Z,25.38
2018-09-05T06:08:31.504Z,25.33
2018-09-05T06:09:31.462Z,25.30
2018-09-05T06:10:31.464Z,25.33
2018-09-05T06:11:31.601Z,25.34
2018-09-05T06:12:31.477Z,25.37
2018-09-05T06:13:31.535Z,25.37
2018-09-05T06:14:31.457Z,25.37
2018-09-05T06:15:31.568Z,25.33
2018-09-05T06:16:31.451Z,25.38
2018-09-05T06:17:32.078Z,25.38
2018-09-05T06:18:31.869Z,25.37
2018-09-05T06:19:33.980Z,25.38
2018-09-05T06:20:31.403Z,25.37
2018-09-05T06:21:31.356Z,25.44
2018-09-05T06:22:31.988Z,25.47
2018-09-05T06:23:31.304Z,25.37
2018-09-05T06:24:31.300Z,25.41
2018-09-05T06:25:31.281Z,25.45
2018-09-05T06:26:31.298Z,25.42
2018-09-05T06:27:31.260Z,25.52
2018-09-05T06:28:31.260Z,25.54
2018-09-05T06:29:31.235Z,25.52
2018-09-05T06:30:31.358Z,25.59
2018-09-05T06:31:31.240Z,25.52
2018-09-05T06:32:31.209Z,25.48
2018-09-05T06:33:31.190Z,25.48
2018-09-05T06:34:31.179Z,25.49
2018-09-05T06:35:31.175Z,25.52
2018-09-05T06:36:31.196Z,25.49
2018-09-05T06:37:31.145Z,25.51
2018-09-05T06:38:31.140Z,25.56
2018-09-05T06:39:31.125Z,25.51
2018-09-05T06:40:31.152Z,25.57
2018-09-05T06:41:31.114Z,25.54
2018-09-05T06:42:31.090Z,25.62
2018-09-05T06:43:31.080Z,25.59
2018-09-05T06:44:31.106Z,25.59
2018-09-05T06:45:31.125Z,25.63
2018-09-05T06:46:31.059Z,25.59
2018-09-05T06:47:31.054Z,25.64
2018-09-05T06:48:31.023Z,25.60
2018-09-05T06:49:31.009Z,25.64
2018-09-05T06:50:30.997Z,25.62
2018-09-05T06:51:31.067Z,25.67
2018-09-05T06:52:30.977Z,25.67
2018-09-05T06:53:30.965Z,25.67
2018-09-05T06:54:30.983Z,25.70
2018-09-05T06:55:30.939Z,25.64
2018-09-05T06:56:30.941Z,25.66
2018-09-05T06:57:30.917Z,25.67
2018-09-05T06:58:30.918Z,25.74
2018-09-05T06:59:30.901Z,25.71
2018-09-05T07:00:30.900Z,25.78
2018-09-05T07:01:30.890Z,25.75
2018-09-05T07:02:30.863Z,25.78
2018-09-05T07:03:30.910Z,25.81
2018-09-05T07:04:30.842Z,25.75
2018-09-05T07:05:30.833Z,25.70
2018-09-05T07:06:30.827Z,25.82
2018-09-05T07:07:30.808Z,25.74
2018-09-05T07:08:30.793Z,25.75
2018-09-05T07:09:30.786Z,25.78
2018-09-05T07:10:30.780Z,25.78
2018-09-05T07:11:30.773Z,25.82
2018-09-05T07:12:30.746Z,25.81
2018-09-05T07:13:30.739Z,25.81
2018-09-05T07:14:30.760Z,25.79
2018-09-05T07:15:30.729Z,25.85
2018-09-05T07:16:30.714Z,25.81
2018-09-05T07:17:30.710Z,25.85
2018-09-05T07:18:30.686Z,25.85
2018-09-05T07:19:30.669Z,25.84
2018-09-05T07:20:30.658Z,25.78
2018-09-05T07:21:30.843Z,25.88
2018-09-05T07:22:30.637Z,25.86
2018-09-05T07:23:30.649Z,25.84
2018-09-05T07:24:30.614Z,25.93
2018-09-05T07:25:30.606Z,25.86
2018-09-05T07:26:30.608Z,25.88
2018-09-05T07:27:30.611Z,25.89
2018-09-05T07:28:30.568Z,25.88
2018-09-05T07:29:30.583Z,25.88
2018-09-05T07:30:30.559Z,25.91
2018-09-05T07:31:30.551Z,25.91
2018-09-05T07:32:30.561Z,25.93
2018-09-05T07:33:30.536Z,25.89
2018-09-05T07:34:30.503Z,26.00
2018-09-05T07:35:30.531Z,25.89
2018-09-05T07:36:30.485Z,26.04
2018-09-05T07:37:30.480Z,25.99
2018-09-05T07:38:30.462Z,26.04
2018-09-05T07:39:30.451Z,26.04
2018-09-05T07:40:30.465Z,26.01
2018-09-05T07:41:30.426Z,25.96
2018-09-05T07:42:30.427Z,26.00
2018-09-05T07:43:30.436Z,25.96
2018-09-05T07:44:30.399Z,25.97
2018-09-05T07:45:30.390Z,26.06
2018-09-05T07:46:30.391Z,26.09
2018-09-05T07:47:30.372Z,25.96
2018-09-05T07:48:30.352Z,26.06
2018-09-05T07:49:30.336Z,26.12
2018-09-05T07:50:30.354Z,26.12
2018-09-05T07:51:30.322Z,26.12
2018-09-05T07:52:30.326Z,26.09
2018-09-05T07:53:30.366Z,26.15
2018-09-05T07:54:30.283Z,26.15
2018-09-05T07:55:30.275Z,26.12
2018-09-05T07:56:30.266Z,26.11
2018-09-05T07:57:30.259Z,26.19
2018-09-05T07:58:30.249Z,26.17
2018-09-05T07:59:30.225Z,26.04
2018-09-05T08:00:30.215Z,26.16
2018-09-05T08:01:30.210Z,26.19
2018-09-05T08:02:30.206Z,26.16
2018-09-05T08:03:30.183Z,26.17
2018-09-05T08:04:30.172Z,26.22
2018-09-05T08:05:30.164Z,26.22
2018-09-05T08:06:30.150Z,26.17
2018-09-05T08:07:30.159Z,26.19
2018-09-05T08:08:30.162Z,26.23
2018-09-05T08:09:30.143Z,26.22
2018-09-05T08:10:30.115Z,26.12
2018-09-05T08:11:30.096Z,26.17
2018-09-05T08:12:30.098Z,26.22
2018-09-05T08:13:30.075Z,26.24
2018-09-05T08:14:30.101Z,26.15
2018-09-05T08:15:30.064Z,26.15
2018-09-05T08:16:30.046Z,26.26
2018-09-05T08:17:30.040Z,26.24
2018-09-05T08:18:30.020Z,26.26
2018-09-05T08:19:30.010Z,26.22
2018-09-05T08:20:29.997Z,26.30
2018-09-05T08:21:29.990Z,26.23
2018-09-05T08:22:29.986Z,26.32
2018-09-05T08:23:29.969Z,26.31
2018-09-05T08:24:29.971Z,26.27
2018-09-05T08:25:29.964Z,26.30
2018-09-05T08:26:29.932Z,26.27
2018-09-05T08:27:29.945Z,26.24
2018-09-05T08:28:29.916Z,26.26
2018-09-05T08:29:29.909Z,26.24
2018-09-05T08:30:29.887Z,26.23
2018-09-05T08:31:29.883Z,26.34
2018-09-05T08:32:29.897Z,26.35
2018-09-05T08:33:29.860Z,26.32
2018-09-05T08:34:29.846Z,26.37
2018-09-05T08:35:30.121Z,26.35
2018-09-05T08:36:30.013Z,26.30
2018-09-05T08:37:30.027Z,26.32
2018-09-05T08:38:29.893Z,26.38
2018-09-05T08:39:29.797Z,26.32
2018-09-05T08:40:29.778Z,26.34
2018-09-05T08:41:29.883Z,26.37
2018-09-05T08:42:29.883Z,26.35
2018-09-05T08:43:29.762Z,26.37
2018-09-05T08:44:29.793Z,26.39
2018-09-05T08:45:30.230Z,26.37
2018-09-05T08:46:29.718Z,26.37
2018-09-05T08:47:29.787Z,26.39
2018-09-05T08:48:29.845Z,26.35
2018-09-05T08:49:29.684Z,26.42
2018-09-05T08:50:29.668Z,26.42
2018-09-05T08:51:29.673Z,26.41
2018-09-05T08:52:29.644Z,26.41
2018-09-05T08:53:29.661Z,26.39
2018-09-05T08:54:29.629Z,26.41
2018-09-05T08:55:29.631Z,26.39
2018-09-05T08:56:29.667Z,26.44
2018-09-05T08:57:29.590Z,26.41
2018-09-05T08:58:29.589Z,26.42
2018-09-05T08:59:29.571Z,26.39
2018-09-05T09:00:29.573Z,26.42
2018-09-05T09:01:29.549Z,26.47
2018-09-05T09:02:29.537Z,26.39
2018-09-05T09:03:29.540Z,26.39
2018-09-05T09:04:29.555Z,26.41
2018-09-05T09:05:29.531Z,26.44
2018-09-05T09:06:29.494Z,26.39
2018-09-05T09:07:29.480Z,26.39
2018-09-05T09:08:29.486Z,26.38
2018-09-05T09:09:29.459Z,26.39
2018-09-05T09:10:29.449Z,26.44
2018-09-05T09:11:29.505Z,26.49
2018-09-05T09:12:29.424Z,26.50
2018-09-05T09:13:29.427Z,26.44
2018-09-05T09:14:29.404Z,26.41
2018-09-05T09:15:29.393Z,26.42
2018-09-05T09:16:29.381Z,26.41
2018-09-05T09:17:29.380Z,26.47
2018-09-05T09:18:29.395Z,26.35
2018-09-05T09:19:29.348Z,26.42
2018-09-05T09:20:29.341Z,26.50
2018-09-05T09:21:29.326Z,26.42
2018-09-05T09:22:29.315Z,26.44
2018-09-05T09:23:29.322Z,26.45
2018-09-05T09:24:29.300Z,26.52
2018-09-05T09:25:29.283Z,26.41
2018-09-05T09:26:29.312Z,26.42
2018-09-05T09:27:29.264Z,26.42
2018-09-05T09:28:29.261Z,26.47
2018-09-05T09:29:29.249Z,26.49
2018-09-05T09:30:29.228Z,26.50
2018-09-05T09:31:29.216Z,26.45
2018-09-05T09:32:29.209Z,26.42
2018-09-05T09:33:29.206Z,26.39
2018-09-05T09:34:29.201Z,26.49
2018-09-05T09:35:29.308Z,26.38
2018-09-05T09:36:29.163Z,26.52
2018-09-05T09:37:29.152Z,26.49
2018-09-05T09:38:29.198Z,26.42
2018-09-05T09:39:29.131Z,26.44
2018-09-05T09:40:29.120Z,26.50
2018-09-05T09:41:29.150Z,26.53
2018-09-05T09:42:29.096Z,26.47
2018-09-05T09:43:29.094Z,26.59
2018-09-05T09:44:29.088Z,26.54
2018-09-05T09:45:29.071Z,26.54
2018-09-05T09:46:29.105Z,26.53
2018-09-05T09:47:29.045Z,26.53
2018-09-05T09:48:29.042Z,26.49
2018-09-05T09:49:29.022Z,26.54
2018-09-05T09:50:29.007Z,26.42
2018-09-05T09:51:29.057Z,26.54
2018-09-05T09:52:28.990Z,26.53
2018-09-05T09:53:28.987Z,26.52
2018-09-05T09:54:28.963Z,26.59
2018-09-05T09:55:28.956Z,26.53
2018-09-05T09:56:28.948Z,26.45
2018-09-05T09:57:28.934Z,26.53
2018-09-05T09:58:28.929Z,26.49
2018-09-05T09:59:28.908Z,26.54
2018-09-05T10:00:28.901Z,26.52
2018-09-05T10:01:28.888Z,26.45
2018-09-05T10:02:28.876Z,26.54
2018-09-05T10:03:28.994Z,26.59
2018-09-05T10:04:28.870Z,26.49
2018-09-05T10:05:28.844Z,26.60
2018-09-05T10:06:28.828Z,26.52
2018-09-05T10:07:28.860Z,26.52
2018-09-05T10:08:28.811Z,26.52
2018-09-05T10:09:28.816Z,26.54
2018-09-05T10:10:28.843Z,26.56
2018-09-05T10:11:28.773Z,26.57
2018-09-05T10:12:28.768Z,26.56
2018-09-05T10:13:28.763Z,26.60
2018-09-05T10:14:28.813Z,26.53
2018-09-05T10:15:28.734Z,26.54
2018-09-05T10:16:28.721Z,26.56
2018-09-05T10:17:28.710Z,26.61
2018-09-05T10:18:28.704Z,26.57
2018-09-05T10:19:28.706Z,26.59
2018-09-05T10:20:28.681Z,26.64
2018-09-05T10:21:28.666Z,26.54
2018-09-05T10:22:28.723Z,26.56
2018-09-05T10:23:28.642Z,26.54
2018-09-05T10:24:28.646Z,26.56
2018-09-05T10:25:28.629Z,26.60
2018-09-05T10:26:28.616Z,26.61
2018-09-05T10:27:28.621Z,26.63
2018-09-05T10:28:28.607Z,26.69
2018-09-05T10:29:28.594Z,26.71
2018-09-05T10:30:28.566Z,26.71
2018-09-05T10:31:28.567Z,26.69
2018-09-05T10:32:28.543Z,26.61
2018-09-05T10:33:28.533Z,26.61
2018-09-05T10:34:28.542Z,26.69
2018-09-05T10:35:28.510Z,26.64
2018-09-05T10:36:28.504Z,26.68
2018-09-05T10:37:28.488Z,26.67
2018-09-05T10:38:28.512Z,26.68
2018-09-05T10:39:28.520Z,26.63
2018-09-05T10:40:28.453Z,26.63
2018-09-05T10:41:28.443Z,26.67
2018-09-05T10:42:28.445Z,26.68
2018-09-05T10:43:28.423Z,26.74
2018-09-05T10:44:28.432Z,26.67
2018-09-05T10:45:28.486Z,26.78
2018-09-05T10:46:28.395Z,26.76
2018-09-05T10:47:28.376Z,26.71
2018-09-05T10:48:28.367Z,26.71
2018-09-05T10:49:28.369Z,26.84
2018-09-05T10:50:28.364Z,26.79
2018-09-05T10:51:28.338Z,26.74
2018-09-05T10:52:28.327Z,26.79
2018-09-05T10:53:28.344Z,26.82
2018-09-05T10:54:28.313Z,26.74
2018-09-05T10:55:28.292Z,26.78
2018-09-05T10:56:28.288Z,26.78
2018-09-05T10:57:28.274Z,26.78
2018-09-05T10:58:28.257Z,26.78
2018-09-05T10:59:28.280Z,26.76
2018-09-05T11:00:28.258Z,26.79
2018-09-05T11:01:28.222Z,26.79
2018-09-05T11:02:28.215Z,26.76
2018-09-05T11:03:28.202Z,26.82
2018-09-05T11:04:28.191Z,26.79
2018-09-05T11:05:28.196Z,26.81
2018-09-05T11:06:28.169Z,26.86
2018-09-05T11:07:28.162Z,26.79
2018-09-05T11:08:28.146Z,26.84
2018-09-05T11:09:28.133Z,26.82
2018-09-05T11:10:28.139Z,26.86
2018-09-05T11:11:28.112Z,26.84
2018-09-05T11:12:28.106Z,26.79
2018-09-05T11:13:28.116Z,26.87
2018-09-05T11:14:28.086Z,26.79
2018-09-05T11:15:28.085Z,26.82
2018-09-05T11:16:28.058Z,26.81
2018-09-05T11:17:28.051Z,26.79
2018-09-05T11:18:28.037Z,26.84
2018-09-05T11:19:28.039Z,26.81
2018-09-05T11:20:28.025Z,26.79
2018-09-05T11:21:28.003Z,26.87
2018-09-05T11:22:27.994Z,26.84
2018-09-05T11:23:27.980Z,26.89
2018-09-05T11:24:27.987Z,26.87
2018-09-05T11:25:27.969Z,26.89
2018-09-05T11:26:27.959Z,26.78
2018-09-05T11:27:27.940Z,26.79
2018-09-05T11:28:27.932Z,26.91
2018-09-05T11:29:27.918Z,26.86
2018-09-05T11:30:27.913Z,26.93
2018-09-05T11:31:27.891Z,26.81
2018-09-05T11:32:27.881Z,26.90
2018-09-05T11:33:27.872Z,26.82
2018-09-05T11:34:27.862Z,26.89
2018-09-05T11:35:27.866Z,26.87
2018-09-05T11:36:27.877Z,26.90
2018-09-05T11:37:27.826Z,26.79
2018-09-05T11:38:27.815Z,26.86
2018-09-05T11:39:27.804Z,26.93
2018-09-05T11:40:27.807Z,26.89
2018-09-05T11:41:27.784Z,26.90
2018-09-05T11:42:27.771Z,26.82
2018-09-05T11:43:27.763Z,26.86
2018-09-05T11:44:27.750Z,26.86
2018-09-05T11:45:27.760Z,26.91
2018-09-05T11:46:27.745Z,26.82
2018-09-05T11:47:27.718Z,26.79
2018-09-05T11:48:27.719Z,26.93
2018-09-05T11:49:27.724Z,26.89
2018-09-05T11:50:27.687Z,26.90
2018-09-05T11:51:27.683Z,26.89
2018-09-05T11:52:27.667Z,26.90
2018-09-05T11:53:27.657Z,26.79
2018-09-05T11:54:27.642Z,26.93
2018-09-05T11:55:27.641Z,26.89
2018-09-05T11:56:27.632Z,26.89
2018-09-05T11:57:27.627Z,26.93
2018-09-05T11:58:27.600Z,26.91
2018-09-05T11:59:27.595Z,26.90
2018-09-05T12:00:27.608Z,26.90
2018-09-05T12:01:27.606Z,26.87
2018-09-05T12:02:27.560Z,26.86
2018-09-05T12:03:27.549Z,26.89
2018-09-05T12:04:27.529Z,26.91
2018-09-05T12:05:27.537Z,26.90
2018-09-05T12:06:27.541Z,26.93
2018-09-05T12:07:27.501Z,26.91
2018-09-05T12:08:27.483Z,26.82
2018-09-05T12:09:27.489Z,26.94
2018-09-05T12:10:27.466Z,26.90
2018-09-05T12:11:27.465Z,26.89
2018-09-05T12:12:27.441Z,26.93
2018-09-05T12:13:27.429Z,26.89
2018-09-05T12:14:27.421Z,26.97
2018-09-05T12:15:27.408Z,26.87
2018-09-05T12:16:27.440Z,26.87
2018-09-05T12:17:27.388Z,26.91
2018-09-05T12:18:27.375Z,26.89
2018-09-05T12:19:27.378Z,26.94
2018-09-05T12:20:27.357Z,26.87
2018-09-05T12:21:27.351Z,26.91
2018-09-05T12:22:27.346Z,26.91
2018-09-05T12:23:27.325Z,26.89
2018-09-05T12:24:27.312Z,26.89
2018-09-05T12:25:27.298Z,26.96
2018-09-05T12:26:27.298Z,26.96
2018-09-05T12:27:27.275Z,26.87
2018-09-05T12:28:27.262Z,26.91
2018-09-05T12:29:27.273Z,26.87
2018-09-05T12:30:27.243Z,26.93
2018-09-05T12:31:27.260Z,26.91
2018-09-05T12:32:27.242Z,26.90
2018-09-05T12:33:27.233Z,26.97
2018-09-05T12:34:27.197Z,26.94
2018-09-05T12:35:27.186Z,26.96
2018-09-05T12:36:27.205Z,26.91
2018-09-05T12:37:27.177Z,26.93
2018-09-05T12:38:27.221Z,26.94
2018-09-05T12:39:27.146Z,26.96
2018-09-05T12:40:27.130Z,26.89
2018-09-05T12:41:27.138Z,26.91
2018-09-05T12:42:27.119Z,26.91
2018-09-05T12:43:27.102Z,26.93
2018-09-05T12:44:27.088Z,26.93
2018-09-05T12:45:27.094Z,26.90
2018-09-05T12:46:27.064Z,26.87
2018-09-05T12:47:27.065Z,26.94
2018-09-05T12:48:27.046Z,26.91
2018-09-05T12:49:27.030Z,26.94
2018-09-05T12:50:27.022Z,26.89
2018-09-05T12:51:27.008Z,26.91
2018-09-05T12:52:27.008Z,26.90